Terminal Aerodrome Forecast
Issued by NWS Cleveland, OH

Home | Current Version | Previous Version | Text Only | Print | Product List | Glossary On
Versions: 1 2 3 4 5 6 7 8 9 10 11 12 13 14 15 16 17 18 19 20 21 22 23 24 25 26 27 28 29 30 31 32 33 34
000
FTUS41 KCLE 282300
TAFCLE
TAF
KCLE 282338Z 2900/3006 35010KT P6SM BKN035 BKN060
     FM290400 33007KT P6SM BKN035
     FM291000 28005KT P6SM BKN035 BKN100
     FM291500 28010KT P6SM BKN035
     FM291900 28010KT P6SM VCSH BKN050
     FM300200 22007KT P6SM BKN060=

USA.gov is the U.S. government's official web portal to all federal, state and local government web resources and services.